sensor_id;sensor_type;location;lat;lon;timestamp;pressure;altitude;pressure_sealevel;temperature;humidity
77572;BME280;67214;47.454;18.966;2023-02-19T00:01:43;100304.73;;;11.81;57.98
77572;BME280;67214;47.454;18.966;2023-02-19T00:04:18;100304.16;;;11.78;58.05
77572;BME280;67214;47.454;18.966;2023-02-19T00:06:48;100299.45;;;11.64;58.46
77572;BME280;67214;47.454;18.966;2023-02-19T00:09:17;100299.35;;;11.60;58.56
77572;BME280;67214;47.454;18.966;2023-02-19T00:11:45;100299.25;;;11.56;58.72
77572;BME280;67214;47.454;18.966;2023-02-19T00:14:16;100286.41;;;11.61;58.57
77572;BME280;67214;47.454;18.966;2023-02-19T00:16:44;100297.61;;;11.71;58.46
77572;BME280;67214;47.454;18.966;2023-02-19T00:19:13;100299.33;;;11.72;58.55
77572;BME280;67214;47.454;18.966;2023-02-19T00:21:41;100294.75;;;11.74;58.52
77572;BME280;67214;47.454;18.966;2023-02-19T00:24:11;100297.98;;;11.66;58.78
77572;BME280;67214;47.454;18.966;2023-02-19T00:26:40;100294.60;;;11.75;58.49
77572;BME280;67214;47.454;18.966;2023-02-19T00:29:13;100297.14;;;11.77;58.51
77572;BME280;67214;47.454;18.966;2023-02-19T00:31:42;100292.77;;;11.70;58.52
77572;BME280;67214;47.454;18.966;2023-02-19T00:34:10;100285.56;;;11.72;58.48
77572;BME280;67214;47.454;18.966;2023-02-19T00:36:39;100288.95;;;11.63;58.79
77572;BME280;67214;47.454;18.966;2023-02-19T00:39:10;100285.33;;;11.64;58.88
77572;BME280;67214;47.454;18.966;2023-02-19T00:41:37;100279.33;;;11.56;58.94
77572;BME280;67214;47.454;18.966;2023-02-19T00:44:06;100292.67;;;11.66;58.89
77572;BME280;67214;47.454;18.966;2023-02-19T00:46:39;100279.91;;;11.60;59.09
77572;BME280;67214;47.454;18.966;2023-02-19T00:49:09;100276.04;;;11.58;59.15
77572;BME280;67214;47.454;18.966;2023-02-19T00:51:37;100274.77;;;11.42;59.83
77572;BME280;67214;47.454;18.966;2023-02-19T00:54:05;100271.37;;;11.51;59.93
77572;BME280;67214;47.454;18.966;2023-02-19T00:56:33;100279.55;;;11.59;59.77
77572;BME280;67214;47.454;18.966;2023-02-19T00:59:01;100268.23;;;11.51;60.04
77572;BME280;67214;47.454;18.966;2023-02-19T01:01:28;100277.09;;;11.41;60.36
77572;BME280;67214;47.454;18.966;2023-02-19T01:03:55;100276.58;;;11.41;60.43
77572;BME280;67214;47.454;18.966;2023-02-19T01:06:23;100278.27;;;11.48;60.13
77572;BME280;67214;47.454;18.966;2023-02-19T01:08:51;100286.94;;;11.50;60.13
77572;BME280;67214;47.454;18.966;2023-02-19T01:11:19;100280.81;;;11.44;60.16
77572;BME280;67214;47.454;18.966;2023-02-19T01:13:47;100281.41;;;11.47;60.01
77572;BME280;67214;47.454;18.966;2023-02-19T01:16:21;100264.36;;;11.50;59.80
77572;BME280;67214;47.454;18.966;2023-02-19T01:18:46;100265.36;;;11.43;59.87
77572;BME280;67214;47.454;18.966;2023-02-19T01:21:16;100273.92;;;11.41;60.15
77572;BME280;67214;47.454;18.966;2023-02-19T01:23:44;100272.00;;;11.43;60.06
77572;BME280;67214;47.454;18.966;2023-02-19T01:26:14;100274.70;;;11.32;60.32
77572;BME280;67214;47.454;18.966;2023-02-19T01:28:42;100269.50;;;11.36;60.28
77572;BME280;67214;47.454;18.966;2023-02-19T01:31:12;100261.44;;;11.21;60.68
77572;BME280;67214;47.454;18.966;2023-02-19T01:33:48;100265.41;;;11.27;60.65
77572;BME280;67214;47.454;18.966;2023-02-19T01:36:16;100267.37;;;11.25;60.80
77572;BME280;67214;47.454;18.966;2023-02-19T01:38:44;100259.52;;;11.17;61.08
77572;BME280;67214;47.454;18.966;2023-02-19T01:41:14;100273.42;;;11.10;61.50
77572;BME280;67214;47.454;18.966;2023-02-19T01:46:42;100260.11;;;11.21;61.36
77572;BME280;67214;47.454;18.966;2023-02-19T01:51:48;100258.92;;;11.19;61.62
77572;BME280;67214;47.454;18.966;2023-02-19T01:54:12;100264.94;;;11.22;61.79
77572;BME280;67214;47.454;18.966;2023-02-19T01:56:43;100252.25;;;11.31;61.24
77572;BME280;67214;47.454;18.966;2023-02-19T01:59:12;100254.53;;;11.35;61.02
77572;BME280;67214;47.454;18.966;2023-02-19T02:01:40;100250.07;;;11.30;61.12
77572;BME280;67214;47.454;18.966;2023-02-19T02:04:10;100250.07;;;11.30;61.32
77572;BME280;67214;47.454;18.966;2023-02-19T02:06:45;100249.59;;;11.25;61.30
77572;BME280;67214;47.454;18.966;2023-02-19T02:09:12;100249.53;;;11.15;61.64
77572;BME280;67214;47.454;18.966;2023-02-19T02:11:58;100253.03;;;11.16;61.63
77572;BME280;67214;47.454;18.966;2023-02-19T02:14:27;100249.48;;;11.21;61.37
77572;BME280;67214;47.454;18.966;2023-02-19T02:17:25;100249.48;;;11.27;61.03
77572;BME280;67214;47.454;18.966;2023-02-19T02:31:24;100241.72;;;10.97;63.71
77572;BME280;67214;47.454;18.966;2023-02-19T02:33:55;100240.16;;;10.89;64.20
77572;BME280;67214;47.454;18.966;2023-02-19T02:36:26;100254.53;;;10.81;64.57
77572;BME280;67214;47.454;18.966;2023-02-19T02:38:52;100255.02;;;10.92;64.34
77572;BME280;67214;47.454;18.966;2023-02-19T02:41:22;100254.39;;;10.88;64.74
77572;BME280;67214;47.454;18.966;2023-02-19T02:43:51;100258.59;;;10.96;65.12
77572;BME280;67214;47.454;18.966;2023-02-19T02:46:25;100250.66;;;10.85;66.06
77572;BME280;67214;47.454;18.966;2023-02-19T02:48:57;100245.01;;;10.73;66.85
77572;BME280;67214;47.454;18.966;2023-02-19T02:51:35;100245.39;;;10.57;67.89
77572;BME280;67214;47.454;18.966;2023-02-19T02:57:09;100239.14;;;10.47;68.50
77572;BME280;67214;47.454;18.966;2023-02-19T02:59:41;100247.70;;;10.51;67.85
77572;BME280;67214;47.454;18.966;2023-02-19T03:02:25;100254.19;;;10.58;67.32
77572;BME280;67214;47.454;18.966;2023-02-19T03:05:05;100255.04;;;10.58;67.41
77572;BME280;67214;47.454;18.966;2023-02-19T03:07:54;100248.05;;;10.63;67.68
77572;BME280;67214;47.454;18.966;2023-02-19T03:10:38;100227.09;;;10.43;68.32
77572;BME280;67214;47.454;18.966;2023-02-19T03:13:07;100227.08;;;10.38;68.36
77572;BME280;67214;47.454;18.966;2023-02-19T03:15:56;100234.08;;;10.39;67.98
77572;BME280;67214;47.454;18.966;2023-02-19T03:18:43;100236.34;;;10.49;67.28
77572;BME280;67214;47.454;18.966;2023-02-19T03:21:31;100242.50;;;10.49;66.80
77572;BME280;67214;47.454;18.966;2023-02-19T03:24:00;100236.09;;;10.52;66.97
77572;BME280;67214;47.454;18.966;2023-02-19T03:26:48;100243.81;;;10.44;67.09
77572;BME280;67214;47.454;18.966;2023-02-19T03:29:20;100256.36;;;10.42;67.24
77572;BME280;67214;47.454;18.966;2023-02-19T03:31:55;100246.59;;;10.37;67.59
77572;BME280;67214;47.454;18.966;2023-02-19T03:34:25;100245.27;;;10.37;67.48
77572;BME280;67214;47.454;18.966;2023-02-19T03:37:10;100244.77;;;10.32;67.61
77572;BME280;67214;47.454;18.966;2023-02-19T03:39:38;100251.88;;;10.31;67.81
77572;BME280;67214;47.454;18.966;2023-02-19T03:42:14;100253.82;;;10.29;67.77
77572;BME280;67214;47.454;18.966;2023-02-19T03:47:29;100245.80;;;10.07;68.03
77572;BME280;67214;47.454;18.966;2023-02-19T03:50:09;100247.59;;;9.95;68.19
77572;BME280;67214;47.454;18.966;2023-02-19T03:55:16;100231.95;;;9.98;68.00
77572;BME280;67214;47.454;18.966;2023-02-19T03:58:03;100232.84;;;9.74;68.57
77572;BME280;67214;47.454;18.966;2023-02-19T04:03:09;100250.16;;;9.38;69.62
77572;BME280;67214;47.454;18.966;2023-02-19T04:05:38;100249.59;;;9.16;70.32
77572;BME280;67214;47.454;18.966;2023-02-19T04:08:13;100252.16;;;9.05;70.74
77572;BME280;67214;47.454;18.966;2023-02-19T04:10:40;100254.33;;;9.06;70.90
77572;BME280;67214;47.454;18.966;2023-02-19T04:13:15;100259.66;;;9.35;70.67
77572;BME280;67214;47.454;18.966;2023-02-19T04:15:41;100255.26;;;9.47;70.34
77572;BME280;67214;47.454;18.966;2023-02-19T04:18:18;100258.89;;;9.51;70.40
77572;BME280;67214;47.454;18.966;2023-02-19T04:20:43;100252.34;;;9.39;70.83
77572;BME280;67214;47.454;18.966;2023-02-19T04:23:12;100250.87;;;9.29;71.03
77572;BME280;67214;47.454;18.966;2023-02-19T04:25:43;100266.75;;;9.11;71.46
77572;BME280;67214;47.454;18.966;2023-02-19T04:28:13;100264.81;;;9.07;71.44
77572;BME280;67214;47.454;18.966;2023-02-19T04:30:43;100268.64;;;9.03;71.75
77572;BME280;67214;47.454;18.966;2023-02-19T04:33:12;100268.67;;;8.91;72.02
77572;BME280;67214;47.454;18.966;2023-02-19T04:35:39;100261.37;;;8.76;72.54
77572;BME280;67214;47.454;18.966;2023-02-19T04:38:07;100265.13;;;8.84;72.98
77572;BME280;67214;47.454;18.966;2023-02-19T04:40:35;100268.77;;;8.89;72.61
77572;BME280;67214;47.454;18.966;2023-02-19T04:43:02;100274.94;;;8.77;73.39
77572;BME280;67214;47.454;18.966;2023-02-19T04:45:30;100278.11;;;8.82;73.21
77572;BME280;67214;47.454;18.966;2023-02-19T04:47:57;100271.27;;;8.67;73.59
77572;BME280;67214;47.454;18.966;2023-02-19T04:50:25;100277.59;;;8.64;73.98
77572;BME280;67214;47.454;18.966;2023-02-19T04:52:52;100281.83;;;8.79;73.62
77572;BME280;67214;47.454;18.966;2023-02-19T04:55:20;100285.97;;;8.71;73.74
77572;BME280;67214;47.454;18.966;2023-02-19T04:57:47;100269.02;;;8.55;73.89
77572;BME280;67214;47.454;18.966;2023-02-19T05:00:15;100273.41;;;8.49;73.83
77572;BME280;67214;47.454;18.966;2023-02-19T05:02:42;100269.74;;;8.57;73.64
77572;BME280;67214;47.454;18.966;2023-02-19T05:05:09;100260.24;;;8.55;73.37
77572;BME280;67214;47.454;18.966;2023-02-19T05:07:37;100260.58;;;8.37;73.80
77572;BME280;67214;47.454;18.966;2023-02-19T05:10:05;100263.16;;;8.32;74.17
77572;BME280;67214;47.454;18.966;2023-02-19T05:12:32;100262.59;;;8.34;74.46
77572;BME280;67214;47.454;18.966;2023-02-19T05:15:00;100272.47;;;8.37;74.35
77572;BME280;67214;47.454;18.966;2023-02-19T05:17:27;100259.09;;;8.33;74.49
77572;BME280;67214;47.454;18.966;2023-02-19T05:19:55;100261.67;;;8.40;74.73
77572;BME280;67214;47.454;18.966;2023-02-19T05:22:22;100263.89;;;8.59;75.00
77572;BME280;67214;47.454;18.966;2023-02-19T05:24:49;100260.84;;;8.89;74.20
77572;BME280;67214;47.454;18.966;2023-02-19T05:27:17;100262.61;;;8.83;74.19
77572;BME280;67214;47.454;18.966;2023-02-19T05:29:44;100262.94;;;8.78;74.18
77572;BME280;67214;47.454;18.966;2023-02-19T05:32:12;100263.51;;;8.76;74.23
77572;BME280;67214;47.454;18.966;2023-02-19T05:34:39;100261.42;;;8.69;74.69
77572;BME280;67214;47.454;18.966;2023-02-19T05:37:06;100255.26;;;8.63;74.58
77572;BME280;67214;47.454;18.966;2023-02-19T05:39:34;100249.89;;;8.52;74.99
77572;BME280;67214;47.454;18.966;2023-02-19T05:42:01;100247.52;;;8.42;75.11
77572;BME280;67214;47.454;18.966;2023-02-19T05:44:29;100245.03;;;8.33;75.26
77572;BME280;67214;47.454;18.966;2023-02-19T05:46:56;100257.99;;;8.23;75.62
77572;BME280;67214;47.454;18.966;2023-02-19T05:49:24;100258.13;;;8.22;75.63
77572;BME280;67214;47.454;18.966;2023-02-19T05:51:52;100266.30;;;8.12;75.93
77572;BME280;67214;47.454;18.966;2023-02-19T05:54:19;100267.30;;;8.04;76.15
77572;BME280;67214;47.454;18.966;2023-02-19T05:56:46;100266.28;;;7.99;76.32
77572;BME280;67214;47.454;18.966;2023-02-19T05:59:22;100273.31;;;7.93;76.50
77572;BME280;67214;47.454;18.966;2023-02-19T06:01:52;100274.56;;;7.87;76.67
77572;BME280;67214;47.454;18.966;2023-02-19T06:04:20;100279.21;;;7.84;76.68
77572;BME280;67214;47.454;18.966;2023-02-19T06:06:49;100275.77;;;7.76;76.78
77572;BME280;67214;47.454;18.966;2023-02-19T06:09:16;100278.16;;;7.74;76.86
77572;BME280;67214;47.454;18.966;2023-02-19T06:11:44;100282.89;;;7.69;76.98
77572;BME280;67214;47.454;18.966;2023-02-19T06:14:12;100275.74;;;7.64;77.05
77572;BME280;67214;47.454;18.966;2023-02-19T06:16:40;100274.73;;;7.59;77.21
77572;BME280;67214;47.454;18.966;2023-02-19T06:19:08;100269.87;;;7.53;77.50
77572;BME280;67214;47.454;18.966;2023-02-19T06:21:35;100262.68;;;7.55;77.47
77572;BME280;67214;47.454;18.966;2023-02-19T06:24:07;100269.06;;;7.58;77.38
77572;BME280;67214;47.454;18.966;2023-02-19T06:26:35;100264.00;;;7.55;77.50
77572;BME280;67214;47.454;18.966;2023-02-19T06:29:03;100260.55;;;7.67;77.35
77572;BME280;67214;47.454;18.966;2023-02-19T06:31:30;100260.38;;;7.63;77.50
77572;BME280;67214;47.454;18.966;2023-02-19T06:33:58;100255.09;;;7.63;77.65
77572;BME280;67214;47.454;18.966;2023-02-19T06:36:25;100251.61;;;7.63;77.76
77572;BME280;67214;47.454;18.966;2023-02-19T06:38:53;100258.11;;;7.64;77.82
77572;BME280;67214;47.454;18.966;2023-02-19T06:41:20;100252.53;;;7.69;77.84
77572;BME280;67214;47.454;18.966;2023-02-19T06:43:48;100254.02;;;7.73;77.85
77572;BME280;67214;47.454;18.966;2023-02-19T06:46:15;100248.47;;;7.83;77.68
77572;BME280;67214;47.454;18.966;2023-02-19T06:48:43;100240.06;;;7.90;77.53
77572;BME280;67214;47.454;18.966;2023-02-19T06:51:16;100240.47;;;7.97;77.34
77572;BME280;67214;47.454;18.966;2023-02-19T06:53:52;100243.97;;;7.98;77.32
77572;BME280;67214;47.454;18.966;2023-02-19T06:56:27;100238.68;;;7.98;77.38
77572;BME280;67214;47.454;18.966;2023-02-19T06:58:58;100243.74;;;8.01;77.39
77572;BME280;67214;47.454;18.966;2023-02-19T07:01:27;100240.03;;;8.03;77.38
77572;BME280;67214;47.454;18.966;2023-02-19T07:03:55;100242.96;;;8.06;77.38
77572;BME280;67214;47.454;18.966;2023-02-19T07:06:24;100246.48;;;8.12;77.24
77572;BME280;67214;47.454;18.966;2023-02-19T07:08:53;100242.34;;;8.15;77.26
77572;BME280;67214;47.454;18.966;2023-02-19T07:11:21;100250.36;;;8.26;76.90
77572;BME280;67214;47.454;18.966;2023-02-19T07:13:53;100251.48;;;8.29;76.93
77572;BME280;67214;47.454;18.966;2023-02-19T07:16:21;100253.56;;;8.31;76.94
77572;BME280;67214;47.454;18.966;2023-02-19T07:18:49;100249.25;;;8.35;76.85
77572;BME280;67214;47.454;18.966;2023-02-19T07:21:17;100249.05;;;8.51;76.49
77572;BME280;67214;47.454;18.966;2023-02-19T07:23:45;100246.78;;;8.70;75.76
77572;BME280;67214;47.454;18.966;2023-02-19T07:26:14;100247.02;;;8.73;75.69
77572;BME280;67214;47.454;18.966;2023-02-19T07:28:43;100248.34;;;8.73;75.87
77572;BME280;67214;47.454;18.966;2023-02-19T07:31:12;100246.92;;;8.74;75.89
77572;BME280;67214;47.454;18.966;2023-02-19T07:33:42;100249.47;;;8.76;75.98
77572;BME280;67214;47.454;18.966;2023-02-19T07:36:10;100239.38;;;8.81;75.94
77572;BME280;67214;47.454;18.966;2023-02-19T07:38:38;100236.56;;;8.90;75.65
77572;BME280;67214;47.454;18.966;2023-02-19T07:41:06;100227.73;;;9.02;74.78
77572;BME280;67214;47.454;18.966;2023-02-19T07:43:35;100233.67;;;9.29;74.10
77572;BME280;67214;47.454;18.966;2023-02-19T07:46:08;100226.06;;;9.59;73.48
77572;BME280;67214;47.454;18.966;2023-02-19T07:48:37;100214.13;;;10.11;71.91
77572;BME280;67214;47.454;18.966;2023-02-19T07:51:06;100213.44;;;10.31;71.18
77572;BME280;67214;47.454;18.966;2023-02-19T07:53:35;100215.50;;;10.44;70.76
77572;BME280;67214;47.454;18.966;2023-02-19T07:56:05;100229.37;;;10.59;70.22
77572;BME280;67214;47.454;18.966;2023-02-19T07:58:33;100222.60;;;10.66;69.79
77572;BME280;67214;47.454;18.966;2023-02-19T08:01:21;100217.78;;;10.71;69.78
77572;BME280;67214;47.454;18.966;2023-02-19T08:04:08;100237.41;;;10.68;70.22
77572;BME280;67214;47.454;18.966;2023-02-19T08:06:36;100242.02;;;10.66;70.98
77572;BME280;67214;47.454;18.966;2023-02-19T08:09:04;100254.30;;;10.56;72.23
77572;BME280;67214;47.454;18.966;2023-02-19T08:11:32;100261.30;;;10.41;73.54
77572;BME280;67214;47.454;18.966;2023-02-19T08:14:18;100266.58;;;10.24;75.03
77572;BME280;67214;47.454;18.966;2023-02-19T08:16:49;100275.69;;;10.09;76.21
77572;BME280;67214;47.454;18.966;2023-02-19T08:19:17;100275.19;;;10.04;77.42
77572;BME280;67214;47.454;18.966;2023-02-19T08:21:45;100279.72;;;9.91;78.01
77572;BME280;67214;47.454;18.966;2023-02-19T08:24:12;100285.63;;;9.89;78.24
77572;BME280;67214;47.454;18.966;2023-02-19T08:26:40;100295.01;;;9.82;79.39
77572;BME280;67214;47.454;18.966;2023-02-19T08:29:07;100296.20;;;9.77;78.91
77572;BME280;67214;47.454;18.966;2023-02-19T08:31:35;100286.05;;;9.71;79.43
77572;BME280;67214;47.454;18.966;2023-02-19T08:34:02;100285.81;;;9.69;80.56
77572;BME280;67214;47.454;18.966;2023-02-19T08:36:30;100279.94;;;9.76;80.63
77572;BME280;67214;47.454;18.966;2023-02-19T08:38:57;100279.35;;;9.84;80.13
77572;BME280;67214;47.454;18.966;2023-02-19T08:41:25;100283.56;;;9.87;80.54
77572;BME280;67214;47.454;18.966;2023-02-19T08:43:53;100266.12;;;9.95;80.62
77572;BME280;67214;47.454;18.966;2023-02-19T08:46:20;100265.20;;;10.02;80.50
77572;BME280;67214;47.454;18.966;2023-02-19T08:48:48;100269.28;;;10.00;81.40
77572;BME280;67214;47.454;18.966;2023-02-19T08:51:15;100276.03;;;10.04;80.90
77572;BME280;67214;47.454;18.966;2023-02-19T08:53:43;100284.33;;;10.00;80.68
77572;BME280;67214;47.454;18.966;2023-02-19T08:56:13;100268.80;;;10.01;80.89
77572;BME280;67214;47.454;18.966;2023-02-19T08:58:40;100277.92;;;9.91;81.10
77572;BME280;67214;47.454;18.966;2023-02-19T09:01:09;100280.65;;;9.73;80.90
77572;BME280;67214;47.454;18.966;2023-02-19T09:03:37;100277.39;;;9.69;81.10
77572;BME280;67214;47.454;18.966;2023-02-19T09:06:05;100281.67;;;9.59;81.29
77572;BME280;67214;47.454;18.966;2023-02-19T09:08:33;100281.39;;;9.51;81.66
77572;BME280;67214;47.454;18.966;2023-02-19T09:11:02;100290.05;;;9.48;82.20
77572;BME280;67214;47.454;18.966;2023-02-19T09:13:30;100285.47;;;9.50;81.90
77572;BME280;67214;47.454;18.966;2023-02-19T09:15:57;100283.43;;;9.48;82.13
77572;BME280;67214;47.454;18.966;2023-02-19T09:18:25;100278.61;;;9.47;82.11
77572;BME280;67214;47.454;18.966;2023-02-19T09:20:52;100281.35;;;9.40;82.27
77572;BME280;67214;47.454;18.966;2023-02-19T09:23:20;100280.60;;;9.38;82.72
77572;BME280;67214;47.454;18.966;2023-02-19T09:25:47;100285.28;;;9.34;82.49
77572;BME280;67214;47.454;18.966;2023-02-19T09:28:15;100286.04;;;9.42;82.47
77572;BME280;67214;47.454;18.966;2023-02-19T09:30:42;100278.94;;;9.37;82.66
77572;BME280;67214;47.454;18.966;2023-02-19T09:33:10;100283.56;;;9.52;82.08
77572;BME280;67214;47.454;18.966;2023-02-19T09:35:40;100269.58;;;9.44;82.03
77572;BME280;67214;47.454;18.966;2023-02-19T09:38:08;100276.63;;;9.38;82.54
77572;BME280;67214;47.454;18.966;2023-02-19T09:40:37;100268.77;;;9.49;81.28
77572;BME280;67214;47.454;18.966;2023-02-19T09:43:15;100268.63;;;9.51;81.10
77572;BME280;67214;47.454;18.966;2023-02-19T09:45:39;100262.97;;;9.50;81.20
77572;BME280;67214;47.454;18.966;2023-02-19T09:48:07;100260.96;;;9.53;81.37
77572;BME280;67214;47.454;18.966;2023-02-19T09:50:42;100265.41;;;9.53;81.64
77572;BME280;67214;47.454;18.966;2023-02-19T09:53:22;100268.39;;;9.54;81.10
77572;BME280;67214;47.454;18.966;2023-02-19T09:55:45;100267.11;;;9.59;80.63
77572;BME280;67214;47.454;18.966;2023-02-19T09:58:31;100260.69;;;9.51;80.93
77572;BME280;67214;47.454;18.966;2023-02-19T10:00:59;100247.72;;;9.59;81.07
77572;BME280;67214;47.454;18.966;2023-02-19T10:03:30;100261.13;;;9.68;80.68
77572;BME280;67214;47.454;18.966;2023-02-19T10:06:05;100248.78;;;9.86;79.89
77572;BME280;67214;47.454;18.966;2023-02-19T10:08:34;100239.78;;;9.94;78.99
77572;BME280;67214;47.454;18.966;2023-02-19T10:11:04;100244.02;;;10.13;79.04
77572;BME280;67214;47.454;18.966;2023-02-19T10:13:40;100227.55;;;10.37;78.86
77572;BME280;67214;47.454;18.966;2023-02-19T10:16:14;100216.23;;;10.46;78.49
77572;BME280;67214;47.454;18.966;2023-02-19T10:18:43;100215.24;;;10.75;77.70
77572;BME280;67214;47.454;18.966;2023-02-19T10:21:16;100210.55;;;11.16;77.06
77572;BME280;67214;47.454;18.966;2023-02-19T10:23:43;100210.94;;;11.38;76.24
77572;BME280;67214;47.454;18.966;2023-02-19T10:26:10;100197.66;;;11.64;76.07
77572;BME280;67214;47.454;18.966;2023-02-19T10:28:38;100207.59;;;11.83;74.26
77572;BME280;67214;47.454;18.966;2023-02-19T10:31:18;100196.37;;;12.15;73.04
77572;BME280;67214;47.454;18.966;2023-02-19T10:33:47;100195.79;;;12.57;72.33
77572;BME280;67214;47.454;18.966;2023-02-19T10:36:14;100178.51;;;13.01;71.86
77572;BME280;67214;47.454;18.966;2023-02-19T10:38:39;100180.83;;;13.10;71.17
77572;BME280;67214;47.454;18.966;2023-02-19T10:41:15;100172.63;;;12.97;69.85
77572;BME280;67214;47.454;18.966;2023-02-19T10:44:09;100178.00;;;12.92;68.70
77572;BME280;67214;47.454;18.966;2023-02-19T10:46:24;100169.73;;;13.10;66.69
77572;BME280;67214;47.454;18.966;2023-02-19T10:49:03;100164.33;;;13.25;66.49
77572;BME280;67214;47.454;18.966;2023-02-19T10:51:36;100153.41;;;13.19;66.24
77572;BME280;67214;47.454;18.966;2023-02-19T10:54:15;100142.25;;;13.29;66.18
77572;BME280;67214;47.454;18.966;2023-02-19T10:56:44;100150.02;;;13.45;65.01
77572;BME280;67214;47.454;18.966;2023-02-19T10:59:26;100152.37;;;13.68;64.33
77572;BME280;67214;47.454;18.966;2023-02-19T11:04:28;100119.66;;;13.98;62.04
77572;BME280;67214;47.454;18.966;2023-02-19T11:07:08;100139.17;;;13.76;61.61
77572;BME280;67214;47.454;18.966;2023-02-19T11:09:41;100120.22;;;13.79;60.98
77572;BME280;67214;47.454;18.966;2023-02-19T11:12:12;100131.03;;;14.14;60.14
77572;BME280;67214;47.454;18.966;2023-02-19T11:14:43;100132.58;;;14.17;60.65
77572;BME280;67214;47.454;18.966;2023-02-19T11:17:22;100140.42;;;14.05;59.82
77572;BME280;67214;47.454;18.966;2023-02-19T11:19:59;100122.64;;;14.23;58.32
77572;BME280;67214;47.454;18.966;2023-02-19T11:25:06;100130.80;;;14.76;56.84
77572;BME280;67214;47.454;18.966;2023-02-19T11:27:35;100134.98;;;14.61;57.23
77572;BME280;67214;47.454;18.966;2023-02-19T11:38:34;100118.89;;;14.16;56.22
77572;BME280;67214;47.454;18.966;2023-02-19T11:41:09;100103.03;;;14.28;54.66
77572;BME280;67214;47.454;18.966;2023-02-19T11:44:02;100105.56;;;14.29;55.08
77572;BME280;67214;47.454;18.966;2023-02-19T11:46:59;100083.24;;;14.30;55.39
77572;BME280;67214;47.454;18.966;2023-02-19T11:49:53;100102.95;;;14.33;55.78
77572;BME280;67214;47.454;18.966;2023-02-19T11:52:55;100067.98;;;14.36;55.60
77572;BME280;67214;47.454;18.966;2023-02-19T11:58:05;100079.75;;;14.75;55.70
77572;BME280;67214;47.454;18.966;2023-02-19T12:00:29;100058.61;;;14.81;55.37
77572;BME280;67214;47.454;18.966;2023-02-19T12:06:01;100061.17;;;14.87;54.18
77572;BME280;67214;47.454;18.966;2023-02-19T12:08:57;100038.62;;;14.85;53.81
77572;BME280;67214;47.454;18.966;2023-02-19T12:17:40;100040.92;;;14.63;53.54
77572;BME280;67214;47.454;18.966;2023-02-19T12:20:32;100025.72;;;14.81;52.84
77572;BME280;67214;47.454;18.966;2023-02-19T12:23:28;100026.42;;;14.83;52.66
77572;BME280;67214;47.454;18.966;2023-02-19T12:26:29;100022.59;;;14.85;53.00
77572;BME280;67214;47.454;18.966;2023-02-19T12:31:09;100018.38;;;15.22;51.97
77572;BME280;67214;47.454;18.966;2023-02-19T12:34:05;100017.36;;;14.98;52.27
77572;BME280;67214;47.454;18.966;2023-02-19T12:44:56;99989.80;;;15.49;51.27
77572;BME280;67214;47.454;18.966;2023-02-19T12:47:27;100025.59;;;15.81;50.51
77572;BME280;67214;47.454;18.966;2023-02-19T12:50:12;100016.07;;;16.25;49.68
77572;BME280;67214;47.454;18.966;2023-02-19T12:52:27;100017.63;;;16.52;49.18
77572;BME280;67214;47.454;18.966;2023-02-19T12:54:57;100032.73;;;15.69;50.99
77572;BME280;67214;47.454;18.966;2023-02-19T12:57:31;100025.52;;;14.74;53.41
77572;BME280;67214;47.454;18.966;2023-02-19T13:00:29;100017.67;;;14.95;53.59
77572;BME280;67214;47.454;18.966;2023-02-19T13:03:05;100026.70;;;14.98;53.26
77572;BME280;67214;47.454;18.966;2023-02-19T13:05:49;100009.98;;;15.17;53.36
77572;BME280;67214;47.454;18.966;2023-02-19T13:11:08;100010.63;;;15.41;52.37
77572;BME280;67214;47.454;18.966;2023-02-19T13:13:39;100010.59;;;15.89;51.02
77572;BME280;67214;47.454;18.966;2023-02-19T13:16:17;100002.15;;;15.16;52.81
77572;BME280;67214;47.454;18.966;2023-02-19T13:18:55;99993.89;;;15.53;51.85
77572;BME280;67214;47.454;18.966;2023-02-19T13:21:26;99989.50;;;16.44;49.85
77572;BME280;67214;47.454;18.966;2023-02-19T13:24:20;99972.58;;;16.31;49.98
77572;BME280;67214;47.454;18.966;2023-02-19T13:32:51;99969.87;;;16.19;51.57
77572;BME280;67214;47.454;18.966;2023-02-19T13:38:18;99942.34;;;17.97;46.67
77572;BME280;67214;47.454;18.966;2023-02-19T13:40:59;99949.89;;;18.29;46.06
77572;BME280;67214;47.454;18.966;2023-02-19T13:43:38;99948.12;;;17.86;46.87
77572;BME280;67214;47.454;18.966;2023-02-19T13:46:08;99969.91;;;16.39;51.98
77572;BME280;67214;47.454;18.966;2023-02-19T13:48:34;99990.55;;;14.46;60.77
77572;BME280;67214;47.454;18.966;2023-02-19T13:53:59;100007.17;;;11.76;70.36
77572;BME280;67214;47.454;18.966;2023-02-19T14:04:44;100083.47;;;11.58;71.87
77572;BME280;67214;47.454;18.966;2023-02-19T14:09:46;100104.59;;;11.18;70.43
77572;BME280;67214;47.454;18.966;2023-02-19T14:14:45;100136.35;;;10.34;73.09
77572;BME280;67214;47.454;18.966;2023-02-19T14:28:05;100144.91;;;9.36;80.72
77572;BME280;67214;47.454;18.966;2023-02-19T14:30:46;100147.05;;;9.31;79.81
77572;BME280;67214;47.454;18.966;2023-02-19T14:33:08;100145.98;;;9.39;78.89
77572;BME280;67214;47.454;18.966;2023-02-19T14:35:40;100152.37;;;9.37;78.97
77572;BME280;67214;47.454;18.966;2023-02-19T14:38:17;100149.45;;;9.34;78.74
77572;BME280;67214;47.454;18.966;2023-02-19T14:40:46;100152.81;;;9.30;79.11
77572;BME280;67214;47.454;18.966;2023-02-19T14:43:16;100142.36;;;9.34;79.13
77572;BME280;67214;47.454;18.966;2023-02-19T14:45:47;100140.91;;;10.04;77.71
77572;BME280;67214;47.454;18.966;2023-02-19T14:48:25;100136.47;;;10.16;75.67
77572;BME280;67214;47.454;18.966;2023-02-19T14:50:51;100142.70;;;10.48;76.64